sensor_id;sensor_type;location;lat;lon;timestamp;temperature;humidity
65408;DHT22;52017;51.230;-2.322;2022-09-21T00:03:40;14.70;62.40
65408;DHT22;52017;51.230;-2.322;2022-09-21T00:07:23;14.70;62.50
65408;DHT22;52017;51.230;-2.322;2022-09-21T00:11:05;14.70;62.60
65408;DHT22;52017;51.230;-2.322;2022-09-21T00:14:48;14.70;62.70
65408;DHT22;52017;51.230;-2.322;2022-09-21T00:18:30;14.70;62.80
65408;DHT22;52017;51.230;-2.322;2022-09-21T00:22:13;14.70;62.90
65408;DHT22;52017;51.230;-2.322;2022-09-21T00:29:51;14.80;65.50
65408;DHT22;52017;51.230;-2.322;2022-09-21T00:33:33;14.80;63.10
65408;DHT22;52017;51.230;-2.322;2022-09-21T00:37:16;14.80;63.10
65408;DHT22;52017;51.230;-2.322;2022-09-21T00:40:58;14.80;63.20
65408;DHT22;52017;51.230;-2.322;2022-09-21T00:44:40;14.80;63.30
65408;DHT22;52017;51.230;-2.322;2022-09-21T00:48:22;14.80;63.50
65408;DHT22;52017;51.230;-2.322;2022-09-21T00:52:05;14.80;63.60
65408;DHT22;52017;51.230;-2.322;2022-09-21T00:55:51;14.80;63.70
65408;DHT22;52017;51.230;-2.322;2022-09-21T00:59:37;14.90;64.00
65408;DHT22;52017;51.230;-2.322;2022-09-21T01:03:20;14.80;63.90
65408;DHT22;52017;51.230;-2.322;2022-09-21T01:07:04;14.80;64.00
65408;DHT22;52017;51.230;-2.322;2022-09-21T01:15:02;14.80;66.50
65408;DHT22;52017;51.230;-2.322;2022-09-21T01:18:51;14.80;66.00
65408;DHT22;52017;51.230;-2.322;2022-09-21T01:27:16;14.80;65.60
65408;DHT22;52017;51.230;-2.322;2022-09-21T01:31:04;14.80;67.10
65408;DHT22;52017;51.230;-2.322;2022-09-21T01:35:21;14.90;64.50
65408;DHT22;52017;51.230;-2.322;2022-09-21T01:39:08;14.90;67.10
65408;DHT22;52017;51.230;-2.322;2022-09-21T01:42:53;14.80;64.80
65408;DHT22;52017;51.230;-2.322;2022-09-21T01:46:37;14.90;64.80
65408;DHT22;52017;51.230;-2.322;2022-09-21T01:50:19;14.90;64.90
65408;DHT22;52017;51.230;-2.322;2022-09-21T01:54:10;14.90;65.00
65408;DHT22;52017;51.230;-2.322;2022-09-21T01:58:06;14.90;66.40
65408;DHT22;52017;51.230;-2.322;2022-09-21T02:01:57;14.80;67.20
65408;DHT22;52017;51.230;-2.322;2022-09-21T02:05:40;14.80;66.50
65408;DHT22;52017;51.230;-2.322;2022-09-21T02:09:23;14.80;65.50
65408;DHT22;52017;51.230;-2.322;2022-09-21T02:13:07;14.90;65.60
65408;DHT22;52017;51.230;-2.322;2022-09-21T02:20:49;15.00;67.90
65408;DHT22;52017;51.230;-2.322;2022-09-21T02:24:40;15.00;66.40
65408;DHT22;52017;51.230;-2.322;2022-09-21T02:28:36;15.00;66.90
65408;DHT22;52017;51.230;-2.322;2022-09-21T02:36:39;15.00;67.60
65408;DHT22;52017;51.230;-2.322;2022-09-21T02:40:48;15.00;68.60
65408;DHT22;52017;51.230;-2.322;2022-09-21T02:44:37;15.00;68.70
65408;DHT22;52017;51.230;-2.322;2022-09-21T02:48:28;15.00;67.00
65408;DHT22;52017;51.230;-2.322;2022-09-21T02:52:14;15.00;66.40
65408;DHT22;52017;51.230;-2.322;2022-09-21T02:55:59;15.00;66.10
65408;DHT22;52017;51.230;-2.322;2022-09-21T02:59:44;15.00;66.30
65408;DHT22;52017;51.230;-2.322;2022-09-21T03:03:26;15.00;66.40
65408;DHT22;52017;51.230;-2.322;2022-09-21T03:07:08;15.00;66.60
65408;DHT22;52017;51.230;-2.322;2022-09-21T03:10:50;15.00;66.70
65408;DHT22;52017;51.230;-2.322;2022-09-21T03:14:32;15.00;66.80
65408;DHT22;52017;51.230;-2.322;2022-09-21T03:18:14;15.00;67.00
65408;DHT22;52017;51.230;-2.322;2022-09-21T03:21:59;14.90;67.10
65408;DHT22;52017;51.230;-2.322;2022-09-21T03:25:43;14.90;67.20
65408;DHT22;52017;51.230;-2.322;2022-09-21T03:29:27;14.90;67.50
65408;DHT22;52017;51.230;-2.322;2022-09-21T03:33:09;14.80;67.50
65408;DHT22;52017;51.230;-2.322;2022-09-21T03:36:53;14.80;67.50
65408;DHT22;52017;51.230;-2.322;2022-09-21T03:40:35;14.60;67.60
65408;DHT22;52017;51.230;-2.322;2022-09-21T03:44:17;14.50;67.80
65408;DHT22;52017;51.230;-2.322;2022-09-21T03:48:00;14.40;67.90
65408;DHT22;52017;51.230;-2.322;2022-09-21T03:51:43;14.30;68.10
65408;DHT22;52017;51.230;-2.322;2022-09-21T03:55:25;14.10;68.30
65408;DHT22;52017;51.230;-2.322;2022-09-21T03:59:08;14.00;68.40
65408;DHT22;52017;51.230;-2.322;2022-09-21T04:02:54;14.00;68.60
65408;DHT22;52017;51.230;-2.322;2022-09-21T04:06:36;13.90;68.70
65408;DHT22;52017;51.230;-2.322;2022-09-21T04:10:20;13.80;69.00
65408;DHT22;52017;51.230;-2.322;2022-09-21T04:14:03;13.70;69.10
65408;DHT22;52017;51.230;-2.322;2022-09-21T04:17:50;13.60;69.20
65408;DHT22;52017;51.230;-2.322;2022-09-21T04:21:32;13.50;69.70
65408;DHT22;52017;51.230;-2.322;2022-09-21T04:25:14;13.50;69.50
65408;DHT22;52017;51.230;-2.322;2022-09-21T04:28:57;13.50;69.60
65408;DHT22;52017;51.230;-2.322;2022-09-21T04:32:39;13.40;69.70
65408;DHT22;52017;51.230;-2.322;2022-09-21T04:36:22;13.30;69.80
65408;DHT22;52017;51.230;-2.322;2022-09-21T04:40:05;13.30;70.00
65408;DHT22;52017;51.230;-2.322;2022-09-21T04:43:48;13.20;70.10
65408;DHT22;52017;51.230;-2.322;2022-09-21T04:47:30;13.10;70.20
65408;DHT22;52017;51.230;-2.322;2022-09-21T04:51:13;13.10;70.30
65408;DHT22;52017;51.230;-2.322;2022-09-21T04:54:55;13.00;70.40
65408;DHT22;52017;51.230;-2.322;2022-09-21T04:58:38;13.00;70.60
65408;DHT22;52017;51.230;-2.322;2022-09-21T05:02:20;12.90;70.70
65408;DHT22;52017;51.230;-2.322;2022-09-21T05:06:02;12.80;70.70
65408;DHT22;52017;51.230;-2.322;2022-09-21T05:09:44;12.80;70.80
65408;DHT22;52017;51.230;-2.322;2022-09-21T05:13:45;12.70;70.90
65408;DHT22;52017;51.230;-2.322;2022-09-21T05:17:28;12.60;70.90
65408;DHT22;52017;51.230;-2.322;2022-09-21T05:21:13;12.60;71.00
65408;DHT22;52017;51.230;-2.322;2022-09-21T05:24:56;12.50;71.40
65408;DHT22;52017;51.230;-2.322;2022-09-21T05:28:38;12.50;71.10
65408;DHT22;52017;51.230;-2.322;2022-09-21T05:32:29;12.50;71.20
65408;DHT22;52017;51.230;-2.322;2022-09-21T05:36:32;12.40;72.20
65408;DHT22;52017;51.230;-2.322;2022-09-21T05:40:17;12.30;73.20
65408;DHT22;52017;51.230;-2.322;2022-09-21T05:43:59;12.30;71.40
65408;DHT22;52017;51.230;-2.322;2022-09-21T05:47:55;12.20;71.40
65408;DHT22;52017;51.230;-2.322;2022-09-21T06:03:53;12.00;72.50
65408;DHT22;52017;51.230;-2.322;2022-09-21T06:07:36;12.00;71.70
65408;DHT22;52017;51.230;-2.322;2022-09-21T06:11:18;12.00;71.70
65408;DHT22;52017;51.230;-2.322;2022-09-21T06:15:01;12.00;71.70
65408;DHT22;52017;51.230;-2.322;2022-09-21T06:18:43;12.00;71.70
65408;DHT22;52017;51.230;-2.322;2022-09-21T06:22:25;12.00;71.70
65408;DHT22;52017;51.230;-2.322;2022-09-21T06:26:09;12.00;71.70
65408;DHT22;52017;51.230;-2.322;2022-09-21T06:29:51;12.00;71.70
65408;DHT22;52017;51.230;-2.322;2022-09-21T06:33:33;12.00;71.80
65408;DHT22;52017;51.230;-2.322;2022-09-21T06:37:18;12.00;71.70
65408;DHT22;52017;51.230;-2.322;2022-09-21T06:41:01;12.00;71.80
65408;DHT22;52017;51.230;-2.322;2022-09-21T06:44:43;12.10;71.80
65408;DHT22;52017;51.230;-2.322;2022-09-21T06:48:27;12.10;72.30
65408;DHT22;52017;51.230;-2.322;2022-09-21T06:52:09;12.30;72.40
65408;DHT22;52017;51.230;-2.322;2022-09-21T06:55:51;12.50;72.30
65408;DHT22;52017;51.230;-2.322;2022-09-21T06:59:33;12.80;72.70
65408;DHT22;52017;51.230;-2.322;2022-09-21T07:03:16;13.10;72.60
65408;DHT22;52017;51.230;-2.322;2022-09-21T07:06:59;13.40;72.10
65408;DHT22;52017;51.230;-2.322;2022-09-21T07:10:45;13.70;71.80
65408;DHT22;52017;51.230;-2.322;2022-09-21T07:14:27;14.00;71.60
65408;DHT22;52017;51.230;-2.322;2022-09-21T07:18:13;14.40;71.30
65408;DHT22;52017;51.230;-2.322;2022-09-21T07:21:54;14.90;70.80
65408;DHT22;52017;51.230;-2.322;2022-09-21T07:25:36;15.30;70.30
65408;DHT22;52017;51.230;-2.322;2022-09-21T07:29:18;15.80;69.80
65408;DHT22;52017;51.230;-2.322;2022-09-21T07:33:00;16.20;69.30
65408;DHT22;52017;51.230;-2.322;2022-09-21T07:36:42;16.60;68.80
65408;DHT22;52017;51.230;-2.322;2022-09-21T07:40:24;17.00;68.30
65408;DHT22;52017;51.230;-2.322;2022-09-21T07:44:11;17.20;67.50
65408;DHT22;52017;51.230;-2.322;2022-09-21T07:47:53;17.20;66.70
65408;DHT22;52017;51.230;-2.322;2022-09-21T07:51:36;17.10;66.60
65408;DHT22;52017;51.230;-2.322;2022-09-21T07:55:18;17.10;66.60
65408;DHT22;52017;51.230;-2.322;2022-09-21T07:59:00;17.10;66.60
65408;DHT22;52017;51.230;-2.322;2022-09-21T08:02:48;17.20;66.80
65408;DHT22;52017;51.230;-2.322;2022-09-21T08:06:38;17.60;66.60
65408;DHT22;52017;51.230;-2.322;2022-09-21T08:10:26;18.00;65.90
65408;DHT22;52017;51.230;-2.322;2022-09-21T08:14:17;18.60;65.60
65408;DHT22;52017;51.230;-2.322;2022-09-21T08:18:06;19.20;64.90
65408;DHT22;52017;51.230;-2.322;2022-09-21T08:21:49;19.90;63.70
65408;DHT22;52017;51.230;-2.322;2022-09-21T08:25:44;20.40;62.80
65408;DHT22;52017;51.230;-2.322;2022-09-21T08:29:26;21.10;61.80
65408;DHT22;52017;51.230;-2.322;2022-09-21T08:33:08;21.70;61.00
65408;DHT22;52017;51.230;-2.322;2022-09-21T08:36:49;22.30;59.90
65408;DHT22;52017;51.230;-2.322;2022-09-21T08:40:39;22.80;58.90
65408;DHT22;52017;51.230;-2.322;2022-09-21T08:44:26;23.40;57.30
65408;DHT22;52017;51.230;-2.322;2022-09-21T08:48:22;24.00;56.00
65408;DHT22;52017;51.230;-2.322;2022-09-21T08:52:16;24.70;53.40
65408;DHT22;52017;51.230;-2.322;2022-09-21T08:55:59;25.40;53.60
65408;DHT22;52017;51.230;-2.322;2022-09-21T08:59:44;26.00;52.40
65408;DHT22;52017;51.230;-2.322;2022-09-21T09:16:35;28.10;46.10
65408;DHT22;52017;51.230;-2.322;2022-09-21T09:20:20;28.60;44.70
65408;DHT22;52017;51.230;-2.322;2022-09-21T09:24:17;29.20;43.80
65408;DHT22;52017;51.230;-2.322;2022-09-21T09:28:10;29.70;43.80
65408;DHT22;52017;51.230;-2.322;2022-09-21T09:31:55;30.20;41.80
65408;DHT22;52017;51.230;-2.322;2022-09-21T09:40:34;31.10;39.00
65408;DHT22;52017;51.230;-2.322;2022-09-21T09:53:24;31.60;35.20
65408;DHT22;52017;51.230;-2.322;2022-09-21T09:57:09;31.70;33.80
65408;DHT22;52017;51.230;-2.322;2022-09-21T10:00:53;31.80;35.20
65408;DHT22;52017;51.230;-2.322;2022-09-21T10:04:55;31.30;38.10
65408;DHT22;52017;51.230;-2.322;2022-09-21T10:08:56;30.60;34.80
65408;DHT22;52017;51.230;-2.322;2022-09-21T10:12:45;30.90;34.60
65408;DHT22;52017;51.230;-2.322;2022-09-21T10:16:28;30.90;33.00
65408;DHT22;52017;51.230;-2.322;2022-09-21T10:20:15;30.60;33.80
65408;DHT22;52017;51.230;-2.322;2022-09-21T10:24:03;29.60;33.00
65408;DHT22;52017;51.230;-2.322;2022-09-21T10:27:50;28.90;34.20
65408;DHT22;52017;51.230;-2.322;2022-09-21T10:31:35;28.60;34.60
65408;DHT22;52017;51.230;-2.322;2022-09-21T10:35:25;29.10;33.90
65408;DHT22;52017;51.230;-2.322;2022-09-21T10:40:03;29.10;32.90
65408;DHT22;52017;51.230;-2.322;2022-09-21T11:25:34;33.90;27.20
65408;DHT22;52017;51.230;-2.322;2022-09-21T11:43:00;32.70;26.90
65408;DHT22;52017;51.230;-2.322;2022-09-21T11:51:12;32.10;28.20
65408;DHT22;52017;51.230;-2.322;2022-09-21T11:59:27;33.50;26.20
65408;DHT22;52017;51.230;-2.322;2022-09-21T12:11:32;36.30;24.30
65408;DHT22;52017;51.230;-2.322;2022-09-21T12:15:18;37.10;23.70
65408;DHT22;52017;51.230;-2.322;2022-09-21T12:23:38;37.70;23.10
65408;DHT22;52017;51.230;-2.322;2022-09-21T12:27:30;37.40;23.30
65408;DHT22;52017;51.230;-2.322;2022-09-21T12:31:19;36.40;23.90
65408;DHT22;52017;51.230;-2.322;2022-09-21T12:35:05;34.60;25.10
65408;DHT22;52017;51.230;-2.322;2022-09-21T12:39:14;33.20;26.40
65408;DHT22;52017;51.230;-2.322;2022-09-21T12:43:09;31.70;26.60
65408;DHT22;52017;51.230;-2.322;2022-09-21T12:47:09;30.60;26.80
65408;DHT22;52017;51.230;-2.322;2022-09-21T12:51:19;30.90;26.80
65408;DHT22;52017;51.230;-2.322;2022-09-21T12:55:29;31.70;26.30
65408;DHT22;52017;51.230;-2.322;2022-09-21T13:03:18;32.90;26.10
65408;DHT22;52017;51.230;-2.322;2022-09-21T13:11:22;34.90;24.60
65408;DHT22;52017;51.230;-2.322;2022-09-21T13:15:30;34.10;25.30
65408;DHT22;52017;51.230;-2.322;2022-09-21T13:19:23;32.50;25.50
65408;DHT22;52017;51.230;-2.322;2022-09-21T13:23:16;31.60;26.30
65408;DHT22;52017;51.230;-2.322;2022-09-21T13:27:02;30.70;27.30
65408;DHT22;52017;51.230;-2.322;2022-09-21T13:44:01;34.00;25.70
65408;DHT22;52017;51.230;-2.322;2022-09-21T13:47:54;34.10;24.90
65408;DHT22;52017;51.230;-2.322;2022-09-21T13:52:00;34.10;24.60
65408;DHT22;52017;51.230;-2.322;2022-09-21T13:55:52;33.40;25.00
65408;DHT22;52017;51.230;-2.322;2022-09-21T13:59:35;32.60;25.60
65408;DHT22;52017;51.230;-2.322;2022-09-21T14:03:53;31.60;26.90
65408;DHT22;52017;51.230;-2.322;2022-09-21T14:07:41;30.30;27.90
65408;DHT22;52017;51.230;-2.322;2022-09-21T14:11:38;29.30;28.50
65408;DHT22;52017;51.230;-2.322;2022-09-21T14:15:38;28.60;29.40
65408;DHT22;52017;51.230;-2.322;2022-09-21T14:31:15;26.20;31.60
65408;DHT22;52017;51.230;-2.322;2022-09-21T14:35:05;25.80;32.30
65408;DHT22;52017;51.230;-2.322;2022-09-21T14:38:55;25.40;32.70
65408;DHT22;52017;51.230;-2.322;2022-09-21T14:42:41;25.20;32.90
65408;DHT22;52017;51.230;-2.322;2022-09-21T14:46:40;25.00;33.20
65408;DHT22;52017;51.230;-2.322;2022-09-21T14:50:32;24.80;33.60
65408;DHT22;52017;51.230;-2.322;2022-09-21T14:54:35;24.60;34.10
65408;DHT22;52017;51.230;-2.322;2022-09-21T14:58:33;24.60;34.30
65408;DHT22;52017;51.230;-2.322;2022-09-21T15:02:27;24.40;34.30
65408;DHT22;52017;51.230;-2.322;2022-09-21T15:06:36;24.50;34.50
65408;DHT22;52017;51.230;-2.322;2022-09-21T15:10:53;24.50;35.00
65408;DHT22;52017;51.230;-2.322;2022-09-21T15:14:40;24.60;35.30
65408;DHT22;52017;51.230;-2.322;2022-09-21T15:18:24;24.60;35.00
65408;DHT22;52017;51.230;-2.322;2022-09-21T15:22:20;24.50;35.10
65408;DHT22;52017;51.230;-2.322;2022-09-21T15:26:12;24.50;35.40
65408;DHT22;52017;51.230;-2.322;2022-09-21T15:29:55;24.50;35.30
65408;DHT22;52017;51.230;-2.322;2022-09-21T15:33:38;24.50;35.30
65408;DHT22;52017;51.230;-2.322;2022-09-21T15:37:20;24.50;35.40
65408;DHT22;52017;51.230;-2.322;2022-09-21T15:41:04;24.40;35.50
65408;DHT22;52017;51.230;-2.322;2022-09-21T15:45:09;24.20;35.40
65408;DHT22;52017;51.230;-2.322;2022-09-21T15:48:53;24.10;35.30
65408;DHT22;52017;51.230;-2.322;2022-09-21T15:53:14;24.10;35.60
65408;DHT22;52017;51.230;-2.322;2022-09-21T15:56:59;24.00;35.80
65408;DHT22;52017;51.230;-2.322;2022-09-21T16:00:53;23.80;36.20
65408;DHT22;52017;51.230;-2.322;2022-09-21T16:04:36;23.70;36.60
65408;DHT22;52017;51.230;-2.322;2022-09-21T16:08:34;23.60;36.70
65408;DHT22;52017;51.230;-2.322;2022-09-21T16:16:14;23.30;37.40
65408;DHT22;52017;51.230;-2.322;2022-09-21T16:23:38;23.30;37.40
65408;DHT22;52017;51.230;-2.322;2022-09-21T16:27:23;23.10;37.50
65408;DHT22;52017;51.230;-2.322;2022-09-21T16:31:26;23.10;37.70
65408;DHT22;52017;51.230;-2.322;2022-09-21T16:35:21;23.10;38.00
65408;DHT22;52017;51.230;-2.322;2022-09-21T16:39:08;23.00;38.10
65408;DHT22;52017;51.230;-2.322;2022-09-21T16:42:56;23.00;38.10
65408;DHT22;52017;51.230;-2.322;2022-09-21T16:46:38;22.80;38.10
65408;DHT22;52017;51.230;-2.322;2022-09-21T16:50:25;22.80;38.20
65408;DHT22;52017;51.230;-2.322;2022-09-21T16:54:07;22.60;38.40
65408;DHT22;52017;51.230;-2.322;2022-09-21T16:57:49;22.60;38.60
65408;DHT22;52017;51.230;-2.322;2022-09-21T17:01:31;22.50;38.70
65408;DHT22;52017;51.230;-2.322;2022-09-21T17:05:14;22.40;39.00
65408;DHT22;52017;51.230;-2.322;2022-09-21T17:08:59;22.20;39.10
65408;DHT22;52017;51.230;-2.322;2022-09-21T17:12:41;22.20;39.40
65408;DHT22;52017;51.230;-2.322;2022-09-21T17:16:23;22.10;39.70
65408;DHT22;52017;51.230;-2.322;2022-09-21T17:20:16;22.00;40.10
65408;DHT22;52017;51.230;-2.322;2022-09-21T17:23:59;21.90;40.90
65408;DHT22;52017;51.230;-2.322;2022-09-21T17:27:41;21.80;40.60
65408;DHT22;52017;51.230;-2.322;2022-09-21T17:31:25;21.70;40.80
65408;DHT22;52017;51.230;-2.322;2022-09-21T17:35:30;21.60;40.80
65408;DHT22;52017;51.230;-2.322;2022-09-21T17:39:13;21.50;41.30
65408;DHT22;52017;51.230;-2.322;2022-09-21T17:43:12;21.40;41.00
65408;DHT22;52017;51.230;-2.322;2022-09-21T17:47:19;21.20;41.60
65408;DHT22;52017;51.230;-2.322;2022-09-21T17:51:02;21.10;41.80
65408;DHT22;52017;51.230;-2.322;2022-09-21T17:54:45;21.00;41.20
65408;DHT22;52017;51.230;-2.322;2022-09-21T17:58:37;20.90;41.60
65408;DHT22;52017;51.230;-2.322;2022-09-21T18:02:23;20.70;42.50
65408;DHT22;52017;51.230;-2.322;2022-09-21T18:06:07;20.60;42.10
65408;DHT22;52017;51.230;-2.322;2022-09-21T18:09:49;20.50;42.30
65408;DHT22;52017;51.230;-2.322;2022-09-21T18:13:37;20.30;42.50
65408;DHT22;52017;51.230;-2.322;2022-09-21T18:21:18;20.00;44.10
65408;DHT22;52017;51.230;-2.322;2022-09-21T18:25:22;20.00;43.50
65408;DHT22;52017;51.230;-2.322;2022-09-21T18:29:25;19.80;43.50
65408;DHT22;52017;51.230;-2.322;2022-09-21T18:33:26;19.70;44.40
65408;DHT22;52017;51.230;-2.322;2022-09-21T18:56:46;18.90;45.10
65408;DHT22;52017;51.230;-2.322;2022-09-21T19:00:29;18.80;45.00
65408;DHT22;52017;51.230;-2.322;2022-09-21T19:04:13;18.60;45.30
65408;DHT22;52017;51.230;-2.322;2022-09-21T19:08:28;18.60;45.50
65408;DHT22;52017;51.230;-2.322;2022-09-21T19:16:31;18.40;47.70
65408;DHT22;52017;51.230;-2.322;2022-09-21T19:24:26;18.20;46.20
65408;DHT22;52017;51.230;-2.322;2022-09-21T19:32:14;18.10;48.30
65408;DHT22;52017;51.230;-2.322;2022-09-21T19:35:57;18.00;47.50
65408;DHT22;52017;51.230;-2.322;2022-09-21T19:39:41;17.90;47.50
65408;DHT22;52017;51.230;-2.322;2022-09-21T19:43:39;17.70;47.70
65408;DHT22;52017;51.230;-2.322;2022-09-21T19:47:30;17.60;49.80
65408;DHT22;52017;51.230;-2.322;2022-09-21T19:51:26;17.50;48.70
65408;DHT22;52017;51.230;-2.322;2022-09-21T19:55:15;17.50;48.50
65408;DHT22;52017;51.230;-2.322;2022-09-21T19:59:16;17.40;49.60
65408;DHT22;52017;51.230;-2.322;2022-09-21T20:03:37;17.30;48.80
65408;DHT22;52017;51.230;-2.322;2022-09-21T20:07:23;17.20;50.70
65408;DHT22;52017;51.230;-2.322;2022-09-21T20:11:19;17.10;49.30
65408;DHT22;52017;51.230;-2.322;2022-09-21T20:15:10;17.10;50.00
65408;DHT22;52017;51.230;-2.322;2022-09-21T20:22:59;16.90;51.70
65408;DHT22;52017;51.230;-2.322;2022-09-21T20:26:42;16.90;50.10
65408;DHT22;52017;51.230;-2.322;2022-09-21T20:30:28;16.80;50.40
65408;DHT22;52017;51.230;-2.322;2022-09-21T20:34:13;16.70;50.90
65408;DHT22;52017;51.230;-2.322;2022-09-21T20:37:55;16.60;50.80
65408;DHT22;52017;51.230;-2.322;2022-09-21T20:41:42;16.60;51.00
65408;DHT22;52017;51.230;-2.322;2022-09-21T20:45:24;16.50;51.20
65408;DHT22;52017;51.230;-2.322;2022-09-21T20:49:06;16.50;51.30
65408;DHT22;52017;51.230;-2.322;2022-09-21T20:52:49;16.50;51.50
65408;DHT22;52017;51.230;-2.322;2022-09-21T20:56:31;16.40;51.60
65408;DHT22;52017;51.230;-2.322;2022-09-21T21:00:14;16.30;51.80
65408;DHT22;52017;51.230;-2.322;2022-09-21T21:03:56;16.20;52.00
65408;DHT22;52017;51.230;-2.322;2022-09-21T21:07:44;16.10;52.10
65408;DHT22;52017;51.230;-2.322;2022-09-21T21:11:26;16.00;52.40
65408;DHT22;52017;51.230;-2.322;2022-09-21T21:15:09;16.00;52.60
65408;DHT22;52017;51.230;-2.322;2022-09-21T21:18:52;15.90;52.90
65408;DHT22;52017;51.230;-2.322;2022-09-21T21:22:34;15.90;53.10
65408;DHT22;52017;51.230;-2.322;2022-09-21T21:26:16;15.80;53.30
65408;DHT22;52017;51.230;-2.322;2022-09-21T21:29:58;15.60;53.40
65408;DHT22;52017;51.230;-2.322;2022-09-21T21:33:40;15.50;53.60
65408;DHT22;52017;51.230;-2.322;2022-09-21T21:37:24;15.50;53.80
65408;DHT22;52017;51.230;-2.322;2022-09-21T21:41:06;15.30;54.10
65408;DHT22;52017;51.230;-2.322;2022-09-21T21:44:48;15.30;54.30
65408;DHT22;52017;51.230;-2.322;2022-09-21T21:48:31;15.10;54.50
65408;DHT22;52017;51.230;-2.322;2022-09-21T21:52:13;15.00;54.70
65408;DHT22;52017;51.230;-2.322;2022-09-21T21:56:02;14.90;54.80
65408;DHT22;52017;51.230;-2.322;2022-09-21T21:59:44;14.90;56.30
65408;DHT22;52017;51.230;-2.322;2022-09-21T22:03:26;14.90;55.20
65408;DHT22;52017;51.230;-2.322;2022-09-21T22:07:08;14.80;55.40
65408;DHT22;52017;51.230;-2.322;2022-09-21T22:10:50;14.80;55.60
65408;DHT22;52017;51.230;-2.322;2022-09-21T22:14:32;14.70;55.70
65408;DHT22;52017;51.230;-2.322;2022-09-21T22:18:14;14.70;55.80
65408;DHT22;52017;51.230;-2.322;2022-09-21T22:21:56;14.60;56.10
65408;DHT22;52017;51.230;-2.322;2022-09-21T22:25:38;14.60;56.30
65408;DHT22;52017;51.230;-2.322;2022-09-21T22:29:20;14.50;56.50
65408;DHT22;52017;51.230;-2.322;2022-09-21T22:33:02;14.40;56.50
65408;DHT22;52017;51.230;-2.322;2022-09-21T22:36:44;14.30;56.70
65408;DHT22;52017;51.230;-2.322;2022-09-21T22:40:26;14.30;57.00
65408;DHT22;52017;51.230;-2.322;2022-09-21T22:44:09;14.20;57.00
65408;DHT22;52017;51.230;-2.322;2022-09-21T22:47:51;14.10;57.20
65408;DHT22;52017;51.230;-2.322;2022-09-21T22:51:34;14.10;57.40
65408;DHT22;52017;51.230;-2.322;2022-09-21T22:55:16;14.00;57.50
65408;DHT22;52017;51.230;-2.322;2022-09-21T22:59:00;14.00;57.70
65408;DHT22;52017;51.230;-2.322;2022-09-21T23:02:42;14.00;57.80
65408;DHT22;52017;51.230;-2.322;2022-09-21T23:06:27;13.90;58.00
65408;DHT22;52017;51.230;-2.322;2022-09-21T23:10:10;13.90;58.10
65408;DHT22;52017;51.230;-2.322;2022-09-21T23:13:54;14.00;58.20
65408;DHT22;52017;51.230;-2.322;2022-09-21T23:17:36;13.90;58.40
65408;DHT22;52017;51.230;-2.322;2022-09-21T23:21:21;13.80;58.40
65408;DHT22;52017;51.230;-2.322;2022-09-21T23:25:04;13.80;58.50
65408;DHT22;52017;51.230;-2.322;2022-09-21T23:29:10;13.60;58.60
65408;DHT22;52017;51.230;-2.322;2022-09-21T23:32:53;13.60;59.50
65408;DHT22;52017;51.230;-2.322;2022-09-21T23:36:35;13.60;58.80
65408;DHT22;52017;51.230;-2.322;2022-09-21T23:40:17;13.50;58.90
65408;DHT22;52017;51.230;-2.322;2022-09-21T23:44:00;13.50;59.00
65408;DHT22;52017;51.230;-2.322;2022-09-21T23:47:42;13.50;59.00
65408;DHT22;52017;51.230;-2.322;2022-09-21T23:51:25;13.40;59.30
65408;DHT22;52017;51.230;-2.322;2022-09-21T23:55:07;13.30;59.30
65408;DHT22;52017;51.230;-2.322;2022-09-21T23:58:50;13.20;59.50
